الصفحة الرئيسية
METAR-TAF:

METAR-TAF

مطار :

ماليندي, كينيا

دائرة عرض: 03-14S, خط طول: 040-06E, ارتفاع: 20 متر

مراقبة الطقس الحالي

تاريخ ووقت الإصدار 1ساعة و 11 دقيقة قبل الساعة 06:00UTC
ريح 10 عقدة من الجنوب
درجة الحرارة 27°درجة مئوية
الرطوبة 70%
ضغط 1017 hPa
الرؤية 10 كم أو أكثر
غيوم مفككة على ارتفاع 2000 قدم

METAR: HKML 160600Z 18010KT 9999 BKN020 27/21 Q1017

زمن: 10:11 (07:11 UTC)

توقعات

تاريخ ووقت الإصدار 2ساعات و 11 دقيقة قبل الساعة 05:00UTC
التوقعات صالحة من16 الساعة 06 UTC إلى 17 الساعة 06 UTC
ريح 10 عقدة من الجنوب
الرؤية 10 كم أو أكثر
غيوم مفككة على ارتفاع 2100 قدم
أصبح
من 16 الساعة 09 UTC إلى 16 الساعة 12 UTC
ريح 20 عقدة من الجنوب
غيوم متفرقة على ارتفاع 2400 قدم
أصبح
من 17 الساعة 00 UTC إلى 17 الساعة 03 UTC
ريح 10 عقدة من الجنوب/الجنوب الغربي
غيوم متفرقة على ارتفاع 1800 قدم

TAF: HKML 160500Z 1606/1706 18010KT 9999 BKN021 BECMG 1609/1612 18020KT SCT024 BECMG 1700/1703 21010KT SCT018

أرصاد الطقس والتوقعات من أكثر من 4000 مطار (تقارير الطقس للمطار METAR والتنبؤ بالطقس بالمطارTAF).

المحطات المتاحة هي النقط الصفراء والحمراء على الخريطة.

حرك المؤشر فوق النقطة لمعرفة اسم المحطة.

ثم انقر لمعرفة أرصاد وتوقعات الطقس.

لتغيير الخارطة: اضغط على الأزرار الخضراء مع رمز الصليب الأسود للتكبير. على الزر الأخضر مع شرطة للتصغير، أو على الأسهم الخضراء للخرائط المجاورة.


METAR-TAF: